sensor_id;sensor_type;location;lat;lon;timestamp;temperature;humidity
17399;DHT22;8817;48.170;8.592;2023-04-24T00:01:21;16.10;47.80
17399;DHT22;8817;48.170;8.592;2023-04-24T00:03:48;16.10;47.80
17399;DHT22;8817;48.170;8.592;2023-04-24T00:06:15;16.10;47.90
17399;DHT22;8817;48.170;8.592;2023-04-24T00:08:42;16.10;47.80
17399;DHT22;8817;48.170;8.592;2023-04-24T00:11:10;16.10;47.80
17399;DHT22;8817;48.170;8.592;2023-04-24T00:13:37;16.10;47.80
17399;DHT22;8817;48.170;8.592;2023-04-24T00:16:05;16.10;47.80
17399;DHT22;8817;48.170;8.592;2023-04-24T00:18:32;16.10;47.80
17399;DHT22;8817;48.170;8.592;2023-04-24T00:20:59;16.00;47.70
17399;DHT22;8817;48.170;8.592;2023-04-24T00:23:26;16.00;47.70
17399;DHT22;8817;48.170;8.592;2023-04-24T00:25:52;16.00;47.70
17399;DHT22;8817;48.170;8.592;2023-04-24T00:28:21;16.00;47.70
17399;DHT22;8817;48.170;8.592;2023-04-24T00:30:48;16.00;47.70
17399;DHT22;8817;48.170;8.592;2023-04-24T00:33:14;16.00;47.70
17399;DHT22;8817;48.170;8.592;2023-04-24T00:35:41;16.00;47.80
17399;DHT22;8817;48.170;8.592;2023-04-24T00:38:08;16.00;47.80
17399;DHT22;8817;48.170;8.592;2023-04-24T00:40:35;16.00;47.80
17399;DHT22;8817;48.170;8.592;2023-04-24T00:43:02;16.00;47.80
17399;DHT22;8817;48.170;8.592;2023-04-24T00:45:30;15.90;47.80
17399;DHT22;8817;48.170;8.592;2023-04-24T00:47:58;16.00;47.80
17399;DHT22;8817;48.170;8.592;2023-04-24T00:50:25;15.90;47.80
17399;DHT22;8817;48.170;8.592;2023-04-24T00:52:52;15.90;47.80
17399;DHT22;8817;48.170;8.592;2023-04-24T00:55:19;15.90;47.80
17399;DHT22;8817;48.170;8.592;2023-04-24T00:57:47;15.90;47.80
17399;DHT22;8817;48.170;8.592;2023-04-24T01:00:15;15.90;47.90
17399;DHT22;8817;48.170;8.592;2023-04-24T01:02:44;15.90;47.90
17399;DHT22;8817;48.170;8.592;2023-04-24T01:05:12;15.90;47.90
17399;DHT22;8817;48.170;8.592;2023-04-24T01:07:41;15.90;47.90
17399;DHT22;8817;48.170;8.592;2023-04-24T01:10:11;15.90;47.90
17399;DHT22;8817;48.170;8.592;2023-04-24T01:12:39;15.90;47.90
17399;DHT22;8817;48.170;8.592;2023-04-24T01:15:07;15.90;47.90
17399;DHT22;8817;48.170;8.592;2023-04-24T01:17:35;15.90;47.90
17399;DHT22;8817;48.170;8.592;2023-04-24T01:20:04;15.80;47.90
17399;DHT22;8817;48.170;8.592;2023-04-24T01:22:33;15.90;47.90
17399;DHT22;8817;48.170;8.592;2023-04-24T01:25:01;15.90;47.90
17399;DHT22;8817;48.170;8.592;2023-04-24T01:27:28;15.90;48.00
17399;DHT22;8817;48.170;8.592;2023-04-24T01:29:55;15.90;48.00
17399;DHT22;8817;48.170;8.592;2023-04-24T01:32:22;15.90;48.50
17399;DHT22;8817;48.170;8.592;2023-04-24T01:34:49;15.90;48.00
17399;DHT22;8817;48.170;8.592;2023-04-24T01:37:17;15.90;48.00
17399;DHT22;8817;48.170;8.592;2023-04-24T01:39:45;15.80;47.90
17399;DHT22;8817;48.170;8.592;2023-04-24T01:42:12;15.80;47.90
17399;DHT22;8817;48.170;8.592;2023-04-24T01:44:40;15.80;47.90
17399;DHT22;8817;48.170;8.592;2023-04-24T01:47:07;15.80;48.50
17399;DHT22;8817;48.170;8.592;2023-04-24T01:49:34;15.70;47.80
17399;DHT22;8817;48.170;8.592;2023-04-24T01:52:01;15.70;47.80
17399;DHT22;8817;48.170;8.592;2023-04-24T01:54:28;15.70;47.90
17399;DHT22;8817;48.170;8.592;2023-04-24T01:56:57;15.60;47.90
17399;DHT22;8817;48.170;8.592;2023-04-24T01:59:25;15.60;47.90
17399;DHT22;8817;48.170;8.592;2023-04-24T02:01:53;15.50;47.90
17399;DHT22;8817;48.170;8.592;2023-04-24T02:04:20;15.50;47.90
17399;DHT22;8817;48.170;8.592;2023-04-24T02:06:47;15.40;47.90
17399;DHT22;8817;48.170;8.592;2023-04-24T02:09:14;15.40;48.00
17399;DHT22;8817;48.170;8.592;2023-04-24T02:11:41;15.40;48.00
17399;DHT22;8817;48.170;8.592;2023-04-24T02:14:09;15.30;48.00
17399;DHT22;8817;48.170;8.592;2023-04-24T02:16:36;15.30;48.10
17399;DHT22;8817;48.170;8.592;2023-04-24T02:19:03;15.20;48.00
17399;DHT22;8817;48.170;8.592;2023-04-24T02:21:30;15.20;48.00
17399;DHT22;8817;48.170;8.592;2023-04-24T02:23:59;15.20;48.20
17399;DHT22;8817;48.170;8.592;2023-04-24T02:26:26;15.20;48.90
17399;DHT22;8817;48.170;8.592;2023-04-24T02:28:52;15.10;48.30
17399;DHT22;8817;48.170;8.592;2023-04-24T02:31:21;15.20;48.90
17399;DHT22;8817;48.170;8.592;2023-04-24T02:33:48;15.10;48.30
17399;DHT22;8817;48.170;8.592;2023-04-24T02:36:14;15.10;48.30
17399;DHT22;8817;48.170;8.592;2023-04-24T02:38:41;15.10;48.40
17399;DHT22;8817;48.170;8.592;2023-04-24T02:41:08;15.10;48.40
17399;DHT22;8817;48.170;8.592;2023-04-24T02:43:35;15.10;48.40
17399;DHT22;8817;48.170;8.592;2023-04-24T02:46:02;15.00;48.40
17399;DHT22;8817;48.170;8.592;2023-04-24T02:48:30;15.10;48.50
17399;DHT22;8817;48.170;8.592;2023-04-24T02:50:57;15.10;48.60
17399;DHT22;8817;48.170;8.592;2023-04-24T02:53:25;15.10;48.60
17399;DHT22;8817;48.170;8.592;2023-04-24T02:55:52;15.10;48.60
17399;DHT22;8817;48.170;8.592;2023-04-24T02:58:19;15.10;48.60
17399;DHT22;8817;48.170;8.592;2023-04-24T03:00:46;15.10;48.60
17399;DHT22;8817;48.170;8.592;2023-04-24T03:03:13;15.10;48.60
17399;DHT22;8817;48.170;8.592;2023-04-24T03:05:42;15.10;48.70
17399;DHT22;8817;48.170;8.592;2023-04-24T03:08:08;15.00;48.60
17399;DHT22;8817;48.170;8.592;2023-04-24T03:10:35;15.00;48.60
17399;DHT22;8817;48.170;8.592;2023-04-24T03:13:02;15.00;48.70
17399;DHT22;8817;48.170;8.592;2023-04-24T03:15:29;15.00;48.60
17399;DHT22;8817;48.170;8.592;2023-04-24T03:17:56;15.00;48.60
17399;DHT22;8817;48.170;8.592;2023-04-24T03:20:23;15.00;48.70
17399;DHT22;8817;48.170;8.592;2023-04-24T03:22:51;15.00;48.70
17399;DHT22;8817;48.170;8.592;2023-04-24T03:25:18;14.90;48.60
17399;DHT22;8817;48.170;8.592;2023-04-24T03:27:45;14.90;48.70
17399;DHT22;8817;48.170;8.592;2023-04-24T03:30:12;14.90;48.70
17399;DHT22;8817;48.170;8.592;2023-04-24T03:32:39;14.80;48.70
17399;DHT22;8817;48.170;8.592;2023-04-24T03:35:06;14.90;48.80
17399;DHT22;8817;48.170;8.592;2023-04-24T03:37:33;14.80;48.80
17399;DHT22;8817;48.170;8.592;2023-04-24T03:40:02;14.80;48.90
17399;DHT22;8817;48.170;8.592;2023-04-24T03:42:31;14.80;48.90
17399;DHT22;8817;48.170;8.592;2023-04-24T03:44:58;14.80;48.90
17399;DHT22;8817;48.170;8.592;2023-04-24T03:47:25;14.80;48.90
17399;DHT22;8817;48.170;8.592;2023-04-24T03:49:52;14.80;49.50
17399;DHT22;8817;48.170;8.592;2023-04-24T03:52:19;14.80;48.90
17399;DHT22;8817;48.170;8.592;2023-04-24T03:54:46;14.80;48.90
17399;DHT22;8817;48.170;8.592;2023-04-24T03:57:15;14.80;48.90
17399;DHT22;8817;48.170;8.592;2023-04-24T03:59:41;14.80;48.90
17399;DHT22;8817;48.170;8.592;2023-04-24T04:02:08;14.80;48.90
17399;DHT22;8817;48.170;8.592;2023-04-24T04:04:35;14.80;48.90
17399;DHT22;8817;48.170;8.592;2023-04-24T04:07:02;14.80;48.90
17399;DHT22;8817;48.170;8.592;2023-04-24T04:09:30;14.80;49.00
17399;DHT22;8817;48.170;8.592;2023-04-24T04:11:58;14.80;49.00
17399;DHT22;8817;48.170;8.592;2023-04-24T04:14:27;14.70;49.00
17399;DHT22;8817;48.170;8.592;2023-04-24T04:16:54;14.70;49.10
17399;DHT22;8817;48.170;8.592;2023-04-24T04:19:21;14.70;49.00
17399;DHT22;8817;48.170;8.592;2023-04-24T04:21:48;14.70;49.10
17399;DHT22;8817;48.170;8.592;2023-04-24T04:24:18;14.70;49.10
17399;DHT22;8817;48.170;8.592;2023-04-24T04:26:46;14.70;49.10
17399;DHT22;8817;48.170;8.592;2023-04-24T04:29:13;14.70;49.10
17399;DHT22;8817;48.170;8.592;2023-04-24T04:31:42;14.70;49.10
17399;DHT22;8817;48.170;8.592;2023-04-24T04:34:09;14.70;49.20
17399;DHT22;8817;48.170;8.592;2023-04-24T04:36:37;14.70;48.90
17399;DHT22;8817;48.170;8.592;2023-04-24T04:39:05;14.60;48.60
17399;DHT22;8817;48.170;8.592;2023-04-24T04:41:32;14.40;48.40
17399;DHT22;8817;48.170;8.592;2023-04-24T04:44:00;14.30;48.90
17399;DHT22;8817;48.170;8.592;2023-04-24T04:46:30;14.10;48.30
17399;DHT22;8817;48.170;8.592;2023-04-24T04:49:01;14.00;48.30
17399;DHT22;8817;48.170;8.592;2023-04-24T04:51:28;13.80;48.30
17399;DHT22;8817;48.170;8.592;2023-04-24T04:53:56;13.70;48.40
17399;DHT22;8817;48.170;8.592;2023-04-24T04:56:23;13.50;48.40
17399;DHT22;8817;48.170;8.592;2023-04-24T04:58:50;13.40;48.50
17399;DHT22;8817;48.170;8.592;2023-04-24T05:01:17;13.30;48.50
17399;DHT22;8817;48.170;8.592;2023-04-24T05:03:44;13.20;48.60
17399;DHT22;8817;48.170;8.592;2023-04-24T05:06:12;13.20;48.70
17399;DHT22;8817;48.170;8.592;2023-04-24T05:08:39;13.10;48.70
17399;DHT22;8817;48.170;8.592;2023-04-24T05:11:06;13.10;48.80
17399;DHT22;8817;48.170;8.592;2023-04-24T05:13:33;13.00;48.80
17399;DHT22;8817;48.170;8.592;2023-04-24T05:16:00;13.00;48.90
17399;DHT22;8817;48.170;8.592;2023-04-24T05:18:27;12.90;48.90
17399;DHT22;8817;48.170;8.592;2023-04-24T05:20:53;12.90;49.00
17399;DHT22;8817;48.170;8.592;2023-04-24T05:23:22;12.90;49.10
17399;DHT22;8817;48.170;8.592;2023-04-24T05:25:49;12.90;49.10
17399;DHT22;8817;48.170;8.592;2023-04-24T05:28:16;12.90;49.10
17399;DHT22;8817;48.170;8.592;2023-04-24T05:30:43;12.80;49.10
17399;DHT22;8817;48.170;8.592;2023-04-24T05:33:10;12.90;49.20
17399;DHT22;8817;48.170;8.592;2023-04-24T05:35:37;12.90;49.20
17399;DHT22;8817;48.170;8.592;2023-04-24T05:38:03;12.90;49.30
17399;DHT22;8817;48.170;8.592;2023-04-24T05:40:32;12.90;49.40
17399;DHT22;8817;48.170;8.592;2023-04-24T05:42:59;12.90;49.40
17399;DHT22;8817;48.170;8.592;2023-04-24T05:45:26;12.90;49.40
17399;DHT22;8817;48.170;8.592;2023-04-24T05:47:53;12.90;49.50
17399;DHT22;8817;48.170;8.592;2023-04-24T05:50:20;13.00;49.60
17399;DHT22;8817;48.170;8.592;2023-04-24T05:52:47;13.00;49.60
17399;DHT22;8817;48.170;8.592;2023-04-24T05:55:14;13.10;49.80
17399;DHT22;8817;48.170;8.592;2023-04-24T05:57:45;13.10;49.90
17399;DHT22;8817;48.170;8.592;2023-04-24T06:00:13;13.20;50.00
17399;DHT22;8817;48.170;8.592;2023-04-24T06:02:40;13.30;50.10
17399;DHT22;8817;48.170;8.592;2023-04-24T06:05:07;13.30;50.00
17399;DHT22;8817;48.170;8.592;2023-04-24T06:07:35;13.40;50.00
17399;DHT22;8817;48.170;8.592;2023-04-24T06:10:02;13.50;50.00
17399;DHT22;8817;48.170;8.592;2023-04-24T06:12:29;13.50;49.90
17399;DHT22;8817;48.170;8.592;2023-04-24T06:14:57;13.50;49.80
17399;DHT22;8817;48.170;8.592;2023-04-24T06:17:24;13.60;49.90
17399;DHT22;8817;48.170;8.592;2023-04-24T06:19:51;13.60;50.00
17399;DHT22;8817;48.170;8.592;2023-04-24T06:22:18;13.60;50.00
17399;DHT22;8817;48.170;8.592;2023-04-24T06:24:45;13.70;50.00
17399;DHT22;8817;48.170;8.592;2023-04-24T06:27:13;13.80;50.00
17399;DHT22;8817;48.170;8.592;2023-04-24T06:29:40;13.80;49.90
17399;DHT22;8817;48.170;8.592;2023-04-24T06:32:09;13.80;50.40
17399;DHT22;8817;48.170;8.592;2023-04-24T06:34:35;13.80;49.80
17399;DHT22;8817;48.170;8.592;2023-04-24T06:37:02;13.80;49.70
17399;DHT22;8817;48.170;8.592;2023-04-24T06:39:29;13.80;49.70
17399;DHT22;8817;48.170;8.592;2023-04-24T06:41:56;13.80;49.80
17399;DHT22;8817;48.170;8.592;2023-04-24T06:44:23;13.80;50.00
17399;DHT22;8817;48.170;8.592;2023-04-24T06:46:50;13.80;50.10
17399;DHT22;8817;48.170;8.592;2023-04-24T06:49:18;13.90;50.20
17399;DHT22;8817;48.170;8.592;2023-04-24T06:51:45;13.90;50.20
17399;DHT22;8817;48.170;8.592;2023-04-24T06:54:12;13.90;50.20
17399;DHT22;8817;48.170;8.592;2023-04-24T06:56:39;14.00;50.30
17399;DHT22;8817;48.170;8.592;2023-04-24T06:59:06;14.00;50.30
17399;DHT22;8817;48.170;8.592;2023-04-24T07:01:33;14.00;50.30
17399;DHT22;8817;48.170;8.592;2023-04-24T07:04:00;14.10;50.30
17399;DHT22;8817;48.170;8.592;2023-04-24T07:06:28;14.10;50.30
17399;DHT22;8817;48.170;8.592;2023-04-24T07:08:57;14.20;50.90
17399;DHT22;8817;48.170;8.592;2023-04-24T07:11:24;14.20;50.30
17399;DHT22;8817;48.170;8.592;2023-04-24T07:13:54;14.20;50.20
17399;DHT22;8817;48.170;8.592;2023-04-24T07:16:21;14.20;50.20
17399;DHT22;8817;48.170;8.592;2023-04-24T07:18:48;14.30;50.10
17399;DHT22;8817;48.170;8.592;2023-04-24T07:21:15;14.20;50.10
17399;DHT22;8817;48.170;8.592;2023-04-24T07:23:43;14.20;50.10
17399;DHT22;8817;48.170;8.592;2023-04-24T07:26:10;14.20;50.10
17399;DHT22;8817;48.170;8.592;2023-04-24T07:28:37;14.20;50.10
17399;DHT22;8817;48.170;8.592;2023-04-24T07:31:04;14.20;50.10
17399;DHT22;8817;48.170;8.592;2023-04-24T07:33:31;14.20;50.10
17399;DHT22;8817;48.170;8.592;2023-04-24T07:35:58;14.20;50.20
17399;DHT22;8817;48.170;8.592;2023-04-24T07:38:25;14.20;50.20
17399;DHT22;8817;48.170;8.592;2023-04-24T07:40:54;14.20;50.80
17399;DHT22;8817;48.170;8.592;2023-04-24T07:43:21;14.20;50.20
17399;DHT22;8817;48.170;8.592;2023-04-24T07:45:49;14.20;50.20
17399;DHT22;8817;48.170;8.592;2023-04-24T07:48:16;14.20;50.10
17399;DHT22;8817;48.170;8.592;2023-04-24T07:50:43;14.30;50.10
17399;DHT22;8817;48.170;8.592;2023-04-24T07:53:10;14.30;50.10
17399;DHT22;8817;48.170;8.592;2023-04-24T07:55:37;14.30;50.10
17399;DHT22;8817;48.170;8.592;2023-04-24T07:58:05;14.30;50.10
17399;DHT22;8817;48.170;8.592;2023-04-24T08:00:32;14.30;50.10
17399;DHT22;8817;48.170;8.592;2023-04-24T08:02:59;14.30;50.10
17399;DHT22;8817;48.170;8.592;2023-04-24T08:05:26;14.30;50.00
17399;DHT22;8817;48.170;8.592;2023-04-24T08:07:54;14.20;50.60
17399;DHT22;8817;48.170;8.592;2023-04-24T08:10:21;14.20;50.00
17399;DHT22;8817;48.170;8.592;2023-04-24T08:12:48;14.20;50.00
17399;DHT22;8817;48.170;8.592;2023-04-24T08:15:17;14.20;50.10
17399;DHT22;8817;48.170;8.592;2023-04-24T08:17:44;14.20;50.20
17399;DHT22;8817;48.170;8.592;2023-04-24T08:20:11;14.30;50.50
17399;DHT22;8817;48.170;8.592;2023-04-24T08:22:39;14.40;50.60
17399;DHT22;8817;48.170;8.592;2023-04-24T08:25:08;14.50;50.60
17399;DHT22;8817;48.170;8.592;2023-04-24T08:27:35;14.50;50.30
17399;DHT22;8817;48.170;8.592;2023-04-24T08:30:05;14.60;50.20
17399;DHT22;8817;48.170;8.592;2023-04-24T08:32:33;14.60;50.00
17399;DHT22;8817;48.170;8.592;2023-04-24T08:35:00;14.60;49.90
17399;DHT22;8817;48.170;8.592;2023-04-24T08:37:27;14.60;50.00
17399;DHT22;8817;48.170;8.592;2023-04-24T08:39:54;14.70;50.10
17399;DHT22;8817;48.170;8.592;2023-04-24T08:42:21;14.70;50.00
17399;DHT22;8817;48.170;8.592;2023-04-24T08:44:49;14.70;50.50
17399;DHT22;8817;48.170;8.592;2023-04-24T08:47:16;14.80;49.90
17399;DHT22;8817;48.170;8.592;2023-04-24T08:49:44;14.80;49.80
17399;DHT22;8817;48.170;8.592;2023-04-24T08:52:13;14.80;49.80
17399;DHT22;8817;48.170;8.592;2023-04-24T08:54:41;14.90;49.80
17399;DHT22;8817;48.170;8.592;2023-04-24T08:57:09;14.90;49.60
17399;DHT22;8817;48.170;8.592;2023-04-24T08:59:38;14.90;49.40
17399;DHT22;8817;48.170;8.592;2023-04-24T09:02:05;14.80;49.10
17399;DHT22;8817;48.170;8.592;2023-04-24T09:04:33;14.80;49.10
17399;DHT22;8817;48.170;8.592;2023-04-24T09:07:03;14.70;48.90
17399;DHT22;8817;48.170;8.592;2023-04-24T09:09:32;14.50;48.80
17399;DHT22;8817;48.170;8.592;2023-04-24T09:12:00;14.40;48.80
17399;DHT22;8817;48.170;8.592;2023-04-24T09:14:27;14.20;48.90
17399;DHT22;8817;48.170;8.592;2023-04-24T09:16:56;14.10;49.10
17399;DHT22;8817;48.170;8.592;2023-04-24T09:19:23;14.10;49.30
17399;DHT22;8817;48.170;8.592;2023-04-24T09:21:52;14.00;49.40
17399;DHT22;8817;48.170;8.592;2023-04-24T09:24:21;14.00;49.40
17399;DHT22;8817;48.170;8.592;2023-04-24T09:26:55;13.80;49.30
17399;DHT22;8817;48.170;8.592;2023-04-24T09:29:23;13.80;49.40
17399;DHT22;8817;48.170;8.592;2023-04-24T09:31:50;13.80;49.60
17399;DHT22;8817;48.170;8.592;2023-04-24T09:34:21;13.70;49.80
17399;DHT22;8817;48.170;8.592;2023-04-24T09:36:49;13.70;49.80
17399;DHT22;8817;48.170;8.592;2023-04-24T09:39:16;13.70;49.90
17399;DHT22;8817;48.170;8.592;2023-04-24T09:41:48;13.80;50.10
17399;DHT22;8817;48.170;8.592;2023-04-24T09:44:16;13.80;50.20
17399;DHT22;8817;48.170;8.592;2023-04-24T09:46:44;13.90;50.40
17399;DHT22;8817;48.170;8.592;2023-04-24T09:49:13;13.90;50.50
17399;DHT22;8817;48.170;8.592;2023-04-24T09:51:41;14.00;50.70
17399;DHT22;8817;48.170;8.592;2023-04-24T09:54:14;14.10;50.60
17399;DHT22;8817;48.170;8.592;2023-04-24T09:56:43;14.30;50.80
17399;DHT22;8817;48.170;8.592;2023-04-24T09:59:12;14.40;50.80
17399;DHT22;8817;48.170;8.592;2023-04-24T10:01:39;14.50;50.80
17399;DHT22;8817;48.170;8.592;2023-04-24T10:04:15;14.50;50.80
17399;DHT22;8817;48.170;8.592;2023-04-24T10:06:43;14.60;50.70
17399;DHT22;8817;48.170;8.592;2023-04-24T10:09:10;14.80;50.80
17399;DHT22;8817;48.170;8.592;2023-04-24T10:11:41;14.90;50.90
17399;DHT22;8817;48.170;8.592;2023-04-24T10:14:09;15.00;50.80
17399;DHT22;8817;48.170;8.592;2023-04-24T10:16:39;15.00;50.40
17399;DHT22;8817;48.170;8.592;2023-04-24T10:19:07;15.10;50.30
17399;DHT22;8817;48.170;8.592;2023-04-24T10:21:34;15.10;50.20
17399;DHT22;8817;48.170;8.592;2023-04-24T10:24:03;15.10;49.90
17399;DHT22;8817;48.170;8.592;2023-04-24T10:26:30;15.10;49.80
17399;DHT22;8817;48.170;8.592;2023-04-24T10:28:58;15.10;49.80
17399;DHT22;8817;48.170;8.592;2023-04-24T10:31:25;15.10;49.90
17399;DHT22;8817;48.170;8.592;2023-04-24T10:33:54;15.10;50.00
17399;DHT22;8817;48.170;8.592;2023-04-24T10:36:22;15.20;50.30
17399;DHT22;8817;48.170;8.592;2023-04-24T10:38:53;15.30;50.60
17399;DHT22;8817;48.170;8.592;2023-04-24T10:41:21;15.40;50.60
17399;DHT22;8817;48.170;8.592;2023-04-24T10:43:55;15.50;50.30
17399;DHT22;8817;48.170;8.592;2023-04-24T10:46:30;15.60;50.20
17399;DHT22;8817;48.170;8.592;2023-04-24T10:48:59;15.70;49.90
17399;DHT22;8817;48.170;8.592;2023-04-24T10:51:47;15.70;49.40
17399;DHT22;8817;48.170;8.592;2023-04-24T10:54:25;15.70;49.30
17399;DHT22;8817;48.170;8.592;2023-04-24T10:56:52;15.70;49.30
17399;DHT22;8817;48.170;8.592;2023-04-24T10:59:26;15.80;49.40
17399;DHT22;8817;48.170;8.592;2023-04-24T11:01:54;15.80;49.00
17399;DHT22;8817;48.170;8.592;2023-04-24T11:04:32;15.80;49.20
17399;DHT22;8817;48.170;8.592;2023-04-24T11:07:00;15.80;49.30
17399;DHT22;8817;48.170;8.592;2023-04-24T11:09:30;15.90;49.10
17399;DHT22;8817;48.170;8.592;2023-04-24T11:12:04;15.90;48.90
17399;DHT22;8817;48.170;8.592;2023-04-24T11:15:00;15.90;48.70
17399;DHT22;8817;48.170;8.592;2023-04-24T11:17:29;16.00;48.70
17399;DHT22;8817;48.170;8.592;2023-04-24T11:20:02;16.00;48.60
17399;DHT22;8817;48.170;8.592;2023-04-24T11:22:32;16.00;48.70
17399;DHT22;8817;48.170;8.592;2023-04-24T11:25:00;16.10;48.50
17399;DHT22;8817;48.170;8.592;2023-04-24T11:27:30;16.10;48.30
17399;DHT22;8817;48.170;8.592;2023-04-24T11:30:02;16.10;48.10
17399;DHT22;8817;48.170;8.592;2023-04-24T11:32:34;16.00;47.90
17399;DHT22;8817;48.170;8.592;2023-04-24T11:35:04;16.00;48.00
17399;DHT22;8817;48.170;8.592;2023-04-24T11:37:36;16.00;48.00
17399;DHT22;8817;48.170;8.592;2023-04-24T11:40:04;16.00;48.10
17399;DHT22;8817;48.170;8.592;2023-04-24T11:42:34;15.90;48.10
17399;DHT22;8817;48.170;8.592;2023-04-24T11:45:01;16.00;48.10
17399;DHT22;8817;48.170;8.592;2023-04-24T11:47:33;16.10;48.40
17399;DHT22;8817;48.170;8.592;2023-04-24T11:50:00;16.10;48.60
17399;DHT22;8817;48.170;8.592;2023-04-24T11:52:29;16.20;48.90
17399;DHT22;8817;48.170;8.592;2023-04-24T11:54:56;16.30;48.90
17399;DHT22;8817;48.170;8.592;2023-04-24T11:57:25;16.50;49.00
17399;DHT22;8817;48.170;8.592;2023-04-24T11:59:54;16.60;48.70
17399;DHT22;8817;48.170;8.592;2023-04-24T12:02:22;16.80;48.70
17399;DHT22;8817;48.170;8.592;2023-04-24T12:04:49;16.90;48.70
17399;DHT22;8817;48.170;8.592;2023-04-24T12:07:16;17.00;48.60
17399;DHT22;8817;48.170;8.592;2023-04-24T12:09:46;17.10;48.50
17399;DHT22;8817;48.170;8.592;2023-04-24T12:12:14;17.20;48.60
17399;DHT22;8817;48.170;8.592;2023-04-24T12:14:45;17.10;48.00
17399;DHT22;8817;48.170;8.592;2023-04-24T12:17:12;17.20;48.00
17399;DHT22;8817;48.170;8.592;2023-04-24T12:19:45;17.30;47.90
17399;DHT22;8817;48.170;8.592;2023-04-24T12:22:12;17.30;47.50
17399;DHT22;8817;48.170;8.592;2023-04-24T12:24:59;17.30;47.40
17399;DHT22;8817;48.170;8.592;2023-04-24T12:27:26;17.20;47.10
17399;DHT22;8817;48.170;8.592;2023-04-24T12:29:55;17.20;46.90
17399;DHT22;8817;48.170;8.592;2023-04-24T12:32:22;17.10;47.00
17399;DHT22;8817;48.170;8.592;2023-04-24T12:34:50;17.10;47.20
17399;DHT22;8817;48.170;8.592;2023-04-24T12:37:18;17.00;47.30
17399;DHT22;8817;48.170;8.592;2023-04-24T12:40:00;17.00;47.30
17399;DHT22;8817;48.170;8.592;2023-04-24T12:42:27;17.00;47.20
17399;DHT22;8817;48.170;8.592;2023-04-24T12:44:58;17.00;47.10
17399;DHT22;8817;48.170;8.592;2023-04-24T12:47:26;17.00;47.30
17399;DHT22;8817;48.170;8.592;2023-04-24T12:49:54;17.00;47.40
17399;DHT22;8817;48.170;8.592;2023-04-24T12:52:21;17.10;47.40
17399;DHT22;8817;48.170;8.592;2023-04-24T12:54:49;17.10;47.40
17399;DHT22;8817;48.170;8.592;2023-04-24T12:57:18;17.10;47.50
17399;DHT22;8817;48.170;8.592;2023-04-24T12:59:45;17.20;47.20
17399;DHT22;8817;48.170;8.592;2023-04-24T13:02:12;17.20;47.10
17399;DHT22;8817;48.170;8.592;2023-04-24T13:04:39;17.20;47.00
17399;DHT22;8817;48.170;8.592;2023-04-24T13:07:06;17.10;46.70
17399;DHT22;8817;48.170;8.592;2023-04-24T13:09:34;17.10;46.60
17399;DHT22;8817;48.170;8.592;2023-04-24T13:12:02;17.10;46.80
17399;DHT22;8817;48.170;8.592;2023-04-24T13:14:32;17.10;46.60
17399;DHT22;8817;48.170;8.592;2023-04-24T13:16:59;17.00;46.50
17399;DHT22;8817;48.170;8.592;2023-04-24T13:19:27;17.00;46.70
17399;DHT22;8817;48.170;8.592;2023-04-24T13:21:55;17.00;46.70
17399;DHT22;8817;48.170;8.592;2023-04-24T13:24:23;17.00;46.60
17399;DHT22;8817;48.170;8.592;2023-04-24T13:26:50;16.90;46.80
17399;DHT22;8817;48.170;8.592;2023-04-24T13:29:17;17.00;46.90
17399;DHT22;8817;48.170;8.592;2023-04-24T13:31:46;17.00;46.80
17399;DHT22;8817;48.170;8.592;2023-04-24T13:34:13;17.00;46.90
17399;DHT22;8817;48.170;8.592;2023-04-24T13:36:40;17.00;46.80
17399;DHT22;8817;48.170;8.592;2023-04-24T13:39:07;17.10;46.70
17399;DHT22;8817;48.170;8.592;2023-04-24T13:41:34;17.00;46.60
17399;DHT22;8817;48.170;8.592;2023-04-24T13:44:01;17.00;46.40
17399;DHT22;8817;48.170;8.592;2023-04-24T13:46:28;17.00;46.50
17399;DHT22;8817;48.170;8.592;2023-04-24T13:48:57;17.00;46.40
17399;DHT22;8817;48.170;8.592;2023-04-24T13:51:25;17.00;46.40
17399;DHT22;8817;48.170;8.592;2023-04-24T13:53:52;16.90;46.20
17399;DHT22;8817;48.170;8.592;2023-04-24T13:56:20;16.90;46.30
17399;DHT22;8817;48.170;8.592;2023-04-24T13:58:47;16.90;46.30
17399;DHT22;8817;48.170;8.592;2023-04-24T14:01:15;16.90;46.30
17399;DHT22;8817;48.170;8.592;2023-04-24T14:03:42;16.80;46.20
17399;DHT22;8817;48.170;8.592;2023-04-24T14:06:11;16.80;46.30
17399;DHT22;8817;48.170;8.592;2023-04-24T14:08:38;16.80;46.20
17399;DHT22;8817;48.170;8.592;2023-04-24T14:11:05;16.80;46.20
17399;DHT22;8817;48.170;8.592;2023-04-24T14:13:32;16.80;46.10
17399;DHT22;8817;48.170;8.592;2023-04-24T14:15:59;16.70;46.00
17399;DHT22;8817;48.170;8.592;2023-04-24T14:18:25;16.70;46.10
17399;DHT22;8817;48.170;8.592;2023-04-24T14:20:53;16.70;46.00
17399;DHT22;8817;48.170;8.592;2023-04-24T14:23:21;16.60;46.10
17399;DHT22;8817;48.170;8.592;2023-04-24T14:25:48;16.60;46.40
17399;DHT22;8817;48.170;8.592;2023-04-24T14:28:17;16.70;46.60
17399;DHT22;8817;48.170;8.592;2023-04-24T14:30:44;16.80;46.80
17399;DHT22;8817;48.170;8.592;2023-04-24T14:33:11;16.90;46.80
17399;DHT22;8817;48.170;8.592;2023-04-24T14:35:38;17.00;46.90
17399;DHT22;8817;48.170;8.592;2023-04-24T14:38:05;17.10;46.70
17399;DHT22;8817;48.170;8.592;2023-04-24T14:40:33;17.20;46.80
17399;DHT22;8817;48.170;8.592;2023-04-24T14:43:00;17.30;46.90
17399;DHT22;8817;48.170;8.592;2023-04-24T14:45:28;17.40;47.00
17399;DHT22;8817;48.170;8.592;2023-04-24T14:47:55;17.60;47.10
17399;DHT22;8817;48.170;8.592;2023-04-24T14:50:22;17.70;47.10
17399;DHT22;8817;48.170;8.592;2023-04-24T14:52:53;17.90;47.00
17399;DHT22;8817;48.170;8.592;2023-04-24T14:55:20;18.00;46.90
17399;DHT22;8817;48.170;8.592;2023-04-24T14:57:48;18.10;46.90
17399;DHT22;8817;48.170;8.592;2023-04-24T15:00:16;18.20;46.80
17399;DHT22;8817;48.170;8.592;2023-04-24T15:02:43;18.40;46.60
17399;DHT22;8817;48.170;8.592;2023-04-24T15:05:10;18.40;46.40
17399;DHT22;8817;48.170;8.592;2023-04-24T15:07:37;18.40;46.10
17399;DHT22;8817;48.170;8.592;2023-04-24T15:10:05;18.40;45.90
17399;DHT22;8817;48.170;8.592;2023-04-24T15:12:32;18.40;45.70
17399;DHT22;8817;48.170;8.592;2023-04-24T15:15:00;18.40;45.60
17399;DHT22;8817;48.170;8.592;2023-04-24T15:17:27;18.30;45.40
17399;DHT22;8817;48.170;8.592;2023-04-24T15:19:54;18.30;45.30
17399;DHT22;8817;48.170;8.592;2023-04-24T15:22:21;18.20;44.90
17399;DHT22;8817;48.170;8.592;2023-04-24T15:24:47;18.00;44.60
17399;DHT22;8817;48.170;8.592;2023-04-24T15:27:14;17.90;44.50
17399;DHT22;8817;48.170;8.592;2023-04-24T15:29:41;17.70;44.60
17399;DHT22;8817;48.170;8.592;2023-04-24T15:32:10;17.60;44.60
17399;DHT22;8817;48.170;8.592;2023-04-24T15:34:37;17.40;44.60
17399;DHT22;8817;48.170;8.592;2023-04-24T15:37:04;17.30;44.70
17399;DHT22;8817;48.170;8.592;2023-04-24T15:39:31;17.20;44.70
17399;DHT22;8817;48.170;8.592;2023-04-24T15:41:59;17.00;44.60
17399;DHT22;8817;48.170;8.592;2023-04-24T15:44:27;16.90;44.70
17399;DHT22;8817;48.170;8.592;2023-04-24T15:46:54;16.80;44.70
17399;DHT22;8817;48.170;8.592;2023-04-24T15:49:23;16.70;44.70